createdAt,value
2023-03-02T00:02:29.739Z,0.39
2023-03-02T00:07:38.262Z,0.34
2023-03-02T00:13:52.353Z,0.26
2023-03-02T00:19:44.971Z,0.26
2023-03-02T00:24:53.127Z,0.34
2023-03-02T00:30:35.935Z,0.34
2023-03-02T00:36:03.103Z,0.29
2023-03-02T00:41:29.389Z,0.16
2023-03-02T00:47:03.042Z,0.09
2023-03-02T00:52:08.666Z,-0.03
2023-03-02T00:57:12.072Z,-0.08
2023-03-02T01:02:30.325Z,-0.13
2023-03-02T01:07:42.342Z,-0.13
2023-03-02T01:13:06.586Z,-0.12
2023-03-02T01:18:33.065Z,-0.10
2023-03-02T01:23:46.748Z,-0.13
2023-03-02T01:28:55.576Z,-0.16
2023-03-02T01:34:01.751Z,-0.27
2023-03-02T01:39:07.572Z,-0.30
2023-03-02T01:44:57.459Z,-0.34
2023-03-02T01:51:11.265Z,-0.29
2023-03-02T01:56:31.329Z,-0.17
2023-03-02T02:02:17.740Z,-0.18
2023-03-02T02:07:21.823Z,-0.28
2023-03-02T02:12:38.605Z,-0.33
2023-03-02T02:18:13.458Z,-0.31
2023-03-02T02:24:09.776Z,-0.30
2023-03-02T02:29:23.037Z,-0.19
2023-03-02T02:34:42.656Z,0.04
2023-03-02T02:39:49.101Z,0.29
2023-03-02T02:45:44.546Z,0.58
2023-03-02T02:50:48.271Z,0.84
2023-03-02T02:56:00.275Z,0.94
2023-03-02T03:01:07.151Z,0.98
2023-03-02T03:06:49.176Z,1.08
2023-03-02T03:12:01.423Z,1.28
2023-03-02T03:17:13.926Z,1.48
2023-03-02T03:22:26.454Z,1.66
2023-03-02T03:27:30.394Z,1.82
2023-03-02T03:32:54.041Z,1.90
2023-03-02T03:37:57.769Z,1.90
2023-03-02T03:43:04.961Z,1.87
2023-03-02T03:48:08.860Z,1.93
2023-03-02T03:53:15.577Z,2.00
2023-03-02T03:58:24.992Z,2.01
2023-03-02T04:04:11.393Z,2.09
2023-03-02T04:09:38.142Z,2.06
2023-03-02T04:14:54.350Z,2.02
2023-03-02T04:19:58.801Z,1.96
2023-03-02T04:25:24.519Z,2.03
2023-03-02T04:30:33.255Z,2.10
2023-03-02T04:35:46.676Z,2.23
2023-03-02T04:41:03.214Z,2.29
2023-03-02T04:46:15.771Z,2.18
2023-03-02T04:51:32.630Z,2.13
2023-03-02T04:57:17.371Z,2.09
2023-03-02T05:02:33.893Z,2.06
2023-03-02T05:07:44.796Z,2.12
2023-03-02T05:13:08.966Z,2.15
2023-03-02T05:18:14.865Z,2.17
2023-03-02T05:23:34.794Z,2.08
2023-03-02T05:28:38.749Z,2.06
2023-03-02T05:33:55.303Z,2.06
2023-03-02T05:39:42.734Z,2.06
2023-03-02T05:45:06.385Z,2.18
2023-03-02T05:50:53.365Z,2.17
2023-03-02T05:56:22.468Z,2.13
2023-03-02T06:01:36.881Z,2.20
2023-03-02T06:06:47.613Z,2.23
2023-03-02T06:12:01.586Z,2.24
2023-03-02T06:17:29.206Z,2.38
2023-03-02T06:22:53.153Z,2.38
2023-03-02T06:28:02.101Z,2.34
2023-03-02T06:33:21.318Z,2.27
2023-03-02T06:38:27.784Z,2.23
2023-03-02T06:44:01.728Z,2.18
2023-03-02T06:49:19.341Z,2.12
2023-03-02T06:54:24.056Z,2.14
2023-03-02T06:59:27.761Z,2.12
2023-03-02T07:04:48.947Z,2.11
2023-03-02T07:09:52.320Z,2.15
2023-03-02T07:14:55.860Z,2.20
2023-03-02T07:19:59.512Z,2.30
2023-03-02T07:25:13.690Z,2.46
2023-03-02T07:30:32.633Z,2.47
2023-03-02T07:35:36.073Z,2.44
2023-03-02T07:40:43.071Z,2.42
2023-03-02T07:45:46.668Z,2.38
2023-03-02T07:50:50.035Z,2.38
2023-03-02T07:56:10.845Z,2.44
2023-03-02T08:01:14.225Z,2.54
2023-03-02T08:06:27.543Z,2.57
2023-03-02T08:11:51.143Z,2.54
2023-03-02T08:17:10.704Z,2.54
2023-03-02T08:22:21.456Z,2.53
2023-03-02T08:27:32.837Z,2.58
2023-03-02T08:33:07.472Z,2.62
2023-03-02T08:38:13.705Z,2.70
2023-03-02T08:43:17.423Z,2.71
2023-03-02T08:48:21.724Z,2.71
2023-03-02T08:53:49.828Z,2.77
2023-03-02T08:59:14.185Z,2.85
2023-03-02T09:05:01.419Z,2.90
2023-03-02T09:10:10.457Z,2.93
2023-03-02T09:15:13.938Z,2.91
2023-03-02T09:20:32.283Z,2.88
2023-03-02T09:25:35.656Z,2.85
2023-03-02T09:30:42.129Z,2.93
2023-03-02T09:35:46.790Z,3.11
2023-03-02T09:41:04.060Z,3.25
2023-03-02T09:46:34.935Z,3.27
2023-03-02T09:52:04.270Z,3.26
2023-03-02T09:57:36.330Z,3.26
2023-03-02T10:03:22.688Z,3.23
2023-03-02T10:08:34.478Z,3.29
2023-03-02T10:13:56.123Z,3.49
2023-03-02T10:20:00.217Z,3.74
2023-03-02T10:26:09.998Z,3.79
2023-03-02T10:31:52.967Z,3.80
2023-03-02T10:37:02.353Z,3.86
2023-03-02T10:42:23.911Z,3.94
2023-03-02T10:47:29.100Z,4.03
2023-03-02T10:52:32.624Z,4.11
2023-03-02T10:57:38.839Z,4.13
2023-03-02T11:02:53.609Z,4.14
2023-03-02T11:08:11.562Z,4.13
2023-03-02T11:13:28.584Z,4.16
2023-03-02T11:18:46.104Z,4.17
2023-03-02T11:24:21.894Z,4.21
2023-03-02T11:29:45.696Z,4.27
2023-03-02T11:35:00.603Z,4.36
2023-03-02T11:40:16.437Z,4.40
2023-03-02T11:45:30.575Z,4.41
2023-03-02T11:50:41.298Z,4.42
2023-03-02T11:55:48.648Z,4.43
2023-03-02T12:00:55.875Z,4.52
2023-03-02T12:06:11.123Z,4.56
2023-03-02T12:11:20.404Z,4.63
2023-03-02T12:16:38.896Z,4.68
2023-03-02T12:22:05.781Z,4.76
2023-03-02T12:27:20.979Z,4.82
2023-03-02T12:32:33.491Z,4.87
2023-03-02T12:38:19.294Z,4.95
2023-03-02T12:43:22.639Z,5.04
2023-03-02T12:49:30.294Z,5.08
2023-03-02T12:54:36.928Z,5.18
2023-03-02T12:59:40.711Z,5.09
2023-03-02T13:05:07.438Z,5.03
2023-03-02T13:11:03.520Z,4.98
2023-03-02T13:16:32.546Z,4.90
2023-03-02T13:22:12.477Z,4.85
2023-03-02T13:28:01.622Z,4.84
2023-03-02T13:33:26.869Z,4.78
2023-03-02T13:38:40.442Z,4.72
2023-03-02T13:44:21.512Z,4.71
2023-03-02T13:49:37.833Z,4.78
2023-03-02T13:54:44.116Z,4.75
2023-03-02T13:59:48.309Z,4.79
2023-03-02T14:05:22.861Z,4.69
2023-03-02T14:10:50.550Z,4.61
2023-03-02T14:15:53.979Z,4.52
2023-03-02T14:21:00.231Z,4.48
2023-03-02T14:26:34.930Z,4.49
2023-03-02T14:32:07.413Z,4.49
2023-03-02T14:37:16.879Z,4.47
2023-03-02T14:42:21.520Z,4.48
2023-03-02T14:48:05.358Z,4.45
2023-03-02T14:53:30.735Z,4.34
2023-03-02T14:58:37.720Z,4.26
2023-03-02T15:03:41.105Z,4.26
2023-03-02T15:08:49.230Z,4.28
2023-03-02T15:13:52.696Z,4.35
2023-03-02T15:18:59.051Z,4.38
2023-03-02T15:24:02.583Z,4.36
2023-03-02T15:29:15.141Z,4.31
2023-03-02T15:34:18.613Z,4.27
2023-03-02T15:39:27.700Z,4.23
2023-03-02T15:44:38.391Z,4.19
2023-03-02T15:50:02.251Z,4.17
2023-03-02T15:55:06.028Z,4.12
2023-03-02T16:00:35.308Z,4.09
2023-03-02T16:05:38.801Z,4.10
2023-03-02T16:11:02.480Z,4.10
2023-03-02T16:16:25.459Z,4.08
2023-03-02T16:21:29.110Z,4.04
2023-03-02T16:26:53.597Z,3.96
2023-03-02T16:32:06.670Z,3.80
2023-03-02T16:37:20.311Z,3.63
2023-03-02T16:42:23.770Z,3.41
2023-03-02T16:47:49.022Z,3.17
2023-03-02T16:53:15.216Z,2.96
2023-03-02T16:58:21.198Z,2.78
2023-03-02T17:03:40.993Z,2.66
2023-03-02T17:08:54.622Z,2.48
2023-03-02T17:13:57.867Z,2.36
2023-03-02T17:19:08.802Z,2.23
2023-03-02T17:24:45.473Z,2.16
2023-03-02T17:30:01.275Z,2.10
2023-03-02T17:35:17.074Z,1.92
2023-03-02T17:40:20.616Z,1.74
2023-03-02T17:45:44.569Z,1.59
2023-03-02T17:52:08.672Z,1.55
2023-03-02T17:57:55.596Z,1.48
2023-03-02T18:03:45.312Z,1.45
2023-03-02T18:08:50.708Z,1.29
2023-03-02T18:14:05.675Z,1.22
2023-03-02T18:19:17.477Z,1.17
2023-03-02T18:24:20.813Z,1.14
2023-03-02T18:29:27.707Z,1.08
2023-03-02T18:34:53.421Z,0.98
2023-03-02T18:40:00.597Z,0.88
2023-03-02T18:45:27.477Z,0.86
2023-03-02T18:50:39.909Z,0.93
2023-03-02T18:55:45.889Z,0.87
2023-03-02T19:01:12.697Z,0.86
2023-03-02T19:06:16.634Z,0.77
2023-03-02T19:11:30.536Z,0.66
2023-03-02T19:16:40.371Z,0.61
2023-03-02T19:21:54.000Z,0.51
2023-03-02T19:26:57.431Z,0.45
2023-03-02T19:32:06.515Z,0.47
2023-03-02T19:37:33.299Z,0.54
2023-03-02T19:43:22.985Z,0.43
2023-03-02T19:49:06.851Z,0.34
2023-03-02T19:54:10.248Z,0.29
2023-03-02T19:59:13.631Z,0.26
2023-03-02T20:04:18.264Z,0.21
2023-03-02T20:09:21.825Z,0.17
2023-03-02T20:14:36.366Z,0.19
2023-03-02T20:19:39.720Z,0.19
2023-03-02T20:24:43.803Z,0.22
2023-03-02T20:29:49.863Z,0.13
2023-03-02T20:35:23.841Z,0.06
2023-03-02T20:40:28.219Z,-0.07
2023-03-02T20:45:46.840Z,-0.14
2023-03-02T20:50:53.405Z,-0.22
2023-03-02T20:56:07.245Z,-0.18
2023-03-02T21:01:39.752Z,-0.09
2023-03-02T21:07:06.693Z,-0.10
2023-03-02T21:12:30.743Z,-0.06
2023-03-02T21:17:34.466Z,-0.12
2023-03-02T21:23:41.654Z,-0.20
2023-03-02T21:30:13.019Z,-0.36
2023-03-02T21:35:40.936Z,-0.44
2023-03-02T21:40:47.099Z,-0.45
2023-03-02T21:45:51.589Z,-0.43
2023-03-02T21:50:58.402Z,-0.40
2023-03-02T21:56:10.713Z,-0.46
2023-03-02T22:01:26.147Z,-0.42
2023-03-02T22:06:54.682Z,-0.43
2023-03-02T22:12:18.527Z,-0.53
2023-03-02T22:18:15.762Z,-0.59
2023-03-02T22:24:06.761Z,-0.67
2023-03-02T22:29:52.357Z,-0.72
2023-03-02T22:35:22.125Z,-0.69
2023-03-02T22:40:35.696Z,-0.66
2023-03-02T22:46:15.574Z,-0.59
2023-03-02T22:52:10.440Z,-0.63
2023-03-02T22:57:57.535Z,-0.74
2023-03-02T23:03:25.303Z,-0.80
2023-03-02T23:08:31.738Z,-0.78
2023-03-02T23:13:40.688Z,-0.81
2023-03-02T23:18:57.484Z,-0.83
2023-03-02T23:24:10.842Z,-0.86
2023-03-02T23:29:48.518Z,-0.86
2023-03-02T23:35:05.133Z,-0.80
2023-03-02T23:40:12.098Z,-0.81
2023-03-02T23:45:35.570Z,-0.89
2023-03-02T23:51:21.584Z,-0.92
2023-03-02T23:56:45.069Z,-0.94
